sensor_id;sensor_type;location;lat;lon;timestamp;pressure;altitude;pressure_sealevel;temperature;humidity
54816;BME280;40715;55.752;37.884;2024-03-07T00:00:57;99850.19;;;28.93;22.17
54816;BME280;40715;55.752;37.884;2024-03-07T00:03:27;99846.16;;;28.98;22.17
54816;BME280;40715;55.752;37.884;2024-03-07T00:05:54;99841.44;;;29.00;22.27
54816;BME280;40715;55.752;37.884;2024-03-07T00:08:21;99843.16;;;29.01;22.00
54816;BME280;40715;55.752;37.884;2024-03-07T00:10:48;99839.44;;;29.02;21.93
54816;BME280;40715;55.752;37.884;2024-03-07T00:13:15;99834.56;;;29.05;21.95
54816;BME280;40715;55.752;37.884;2024-03-07T00:15:43;99836.59;;;29.03;21.98
54816;BME280;40715;55.752;37.884;2024-03-07T00:18:10;99838.28;;;29.04;22.06
54816;BME280;40715;55.752;37.884;2024-03-07T00:20:38;99839.16;;;29.05;21.92
54816;BME280;40715;55.752;37.884;2024-03-07T00:23:05;99828.59;;;29.02;22.26
54816;BME280;40715;55.752;37.884;2024-03-07T00:25:35;99831.31;;;29.02;21.79
54816;BME280;40715;55.752;37.884;2024-03-07T00:28:03;99838.56;;;29.01;22.02
54816;BME280;40715;55.752;37.884;2024-03-07T00:30:30;99834.88;;;29.02;21.69
54816;BME280;40715;55.752;37.884;2024-03-07T00:32:57;99819.59;;;29.01;22.20
54816;BME280;40715;55.752;37.884;2024-03-07T00:35:25;99818.59;;;29.02;21.95
54816;BME280;40715;55.752;37.884;2024-03-07T00:37:52;99834.19;;;29.00;22.02
54816;BME280;40715;55.752;37.884;2024-03-07T00:40:19;99829.03;;;28.97;22.01
54816;BME280;40715;55.752;37.884;2024-03-07T00:42:46;99832.75;;;28.96;22.08
54816;BME280;40715;55.752;37.884;2024-03-07T00:45:13;99829.31;;;28.94;22.06
54816;BME280;40715;55.752;37.884;2024-03-07T00:47:40;99827.50;;;28.95;22.15
54816;BME280;40715;55.752;37.884;2024-03-07T00:50:08;99822.06;;;28.95;21.98
54816;BME280;40715;55.752;37.884;2024-03-07T00:52:36;99816.22;;;28.89;22.19
54816;BME280;40715;55.752;37.884;2024-03-07T00:55:04;99817.22;;;28.88;22.23
54816;BME280;40715;55.752;37.884;2024-03-07T00:57:31;99819.78;;;28.90;22.07
54816;BME280;40715;55.752;37.884;2024-03-07T00:59:58;99821.06;;;28.86;22.21
54816;BME280;40715;55.752;37.884;2024-03-07T01:02:26;99822.09;;;28.85;22.15
54816;BME280;40715;55.752;37.884;2024-03-07T01:04:53;99817.50;;;28.85;22.11
54816;BME280;40715;55.752;37.884;2024-03-07T01:07:21;99816.09;;;28.81;21.97
54816;BME280;40715;55.752;37.884;2024-03-07T01:09:50;99816.94;;;28.82;22.02
54816;BME280;40715;55.752;37.884;2024-03-07T01:12:18;99817.38;;;28.77;22.06
54816;BME280;40715;55.752;37.884;2024-03-07T01:14:46;99811.81;;;28.79;22.17
54816;BME280;40715;55.752;37.884;2024-03-07T01:17:14;99805.69;;;28.77;22.30
54816;BME280;40715;55.752;37.884;2024-03-07T01:19:41;99803.00;;;28.77;22.07
54816;BME280;40715;55.752;37.884;2024-03-07T01:22:08;99806.69;;;28.75;22.11
54816;BME280;40715;55.752;37.884;2024-03-07T01:24:35;99803.28;;;28.73;22.19
54816;BME280;40715;55.752;37.884;2024-03-07T01:27:02;99794.28;;;28.73;22.38
54816;BME280;40715;55.752;37.884;2024-03-07T01:29:30;99797.88;;;28.73;22.25
54816;BME280;40715;55.752;37.884;2024-03-07T01:31:57;99803.13;;;28.75;22.18
54816;BME280;40715;55.752;37.884;2024-03-07T01:34:24;99792.16;;;28.77;22.20
54816;BME280;40715;55.752;37.884;2024-03-07T01:36:51;99793.72;;;28.79;22.17
54816;BME280;40715;55.752;37.884;2024-03-07T01:39:18;99797.25;;;28.80;22.24
54816;BME280;40715;55.752;37.884;2024-03-07T01:41:46;99798.84;;;28.82;22.12
54816;BME280;40715;55.752;37.884;2024-03-07T01:44:15;99793.94;;;28.86;22.08
54816;BME280;40715;55.752;37.884;2024-03-07T01:46:42;99791.25;;;28.86;22.10
54816;BME280;40715;55.752;37.884;2024-03-07T01:49:09;99794.53;;;28.89;22.10
54816;BME280;40715;55.752;37.884;2024-03-07T01:51:37;99788.25;;;28.89;22.07
54816;BME280;40715;55.752;37.884;2024-03-07T01:54:08;99790.50;;;28.93;22.17
54816;BME280;40715;55.752;37.884;2024-03-07T01:56:36;99790.66;;;28.92;21.96
54816;BME280;40715;55.752;37.884;2024-03-07T01:59:03;99785.09;;;28.93;21.98
54816;BME280;40715;55.752;37.884;2024-03-07T02:01:32;99787.97;;;28.92;22.04
54816;BME280;40715;55.752;37.884;2024-03-07T02:03:59;99782.22;;;28.95;21.86
54816;BME280;40715;55.752;37.884;2024-03-07T02:06:26;99782.38;;;28.93;21.88
54816;BME280;40715;55.752;37.884;2024-03-07T02:08:55;99778.78;;;28.93;22.14
54816;BME280;40715;55.752;37.884;2024-03-07T02:11:23;99780.34;;;28.96;21.91
54816;BME280;40715;55.752;37.884;2024-03-07T02:13:51;99777.94;;;28.92;21.96
54816;BME280;40715;55.752;37.884;2024-03-07T02:16:18;99779.97;;;28.90;21.89
54816;BME280;40715;55.752;37.884;2024-03-07T02:18:45;99779.97;;;28.90;21.91
54816;BME280;40715;55.752;37.884;2024-03-07T02:21:13;99775.69;;;28.88;21.90
54816;BME280;40715;55.752;37.884;2024-03-07T02:23:40;99768.69;;;28.85;21.94
54816;BME280;40715;55.752;37.884;2024-03-07T02:26:08;99772.41;;;28.84;22.18
54816;BME280;40715;55.752;37.884;2024-03-07T02:28:35;99761.72;;;28.83;22.21
54816;BME280;40715;55.752;37.884;2024-03-07T02:31:02;99762.88;;;28.80;21.94
54816;BME280;40715;55.752;37.884;2024-03-07T02:33:29;99762.88;;;28.80;22.22
54816;BME280;40715;55.752;37.884;2024-03-07T02:35:59;99758.75;;;28.76;22.06
54816;BME280;40715;55.752;37.884;2024-03-07T02:38:26;99760.16;;;28.80;22.10
54816;BME280;40715;55.752;37.884;2024-03-07T02:40:53;99759.31;;;28.80;22.02
54816;BME280;40715;55.752;37.884;2024-03-07T02:43:20;99761.19;;;28.79;22.13
54816;BME280;40715;55.752;37.884;2024-03-07T02:45:48;99770.16;;;28.80;22.65
54816;BME280;40715;55.752;37.884;2024-03-07T02:48:16;99758.47;;;28.79;23.43
54816;BME280;40715;55.752;37.884;2024-03-07T02:50:45;99747.31;;;28.82;23.96
54816;BME280;40715;55.752;37.884;2024-03-07T02:53:13;99755.44;;;28.82;24.59
54816;BME280;40715;55.752;37.884;2024-03-07T02:55:40;99751.59;;;28.85;24.74
54816;BME280;40715;55.752;37.884;2024-03-07T02:58:08;99746.03;;;28.86;24.96
54816;BME280;40715;55.752;37.884;2024-03-07T03:00:35;99752.13;;;28.88;25.42
54816;BME280;40715;55.752;37.884;2024-03-07T03:03:02;99758.81;;;28.94;25.32
54816;BME280;40715;55.752;37.884;2024-03-07T03:05:29;99751.81;;;28.91;25.45
54816;BME280;40715;55.752;37.884;2024-03-07T03:07:56;99754.38;;;28.93;25.54
54816;BME280;40715;55.752;37.884;2024-03-07T03:10:25;99744.56;;;28.92;25.82
54816;BME280;40715;55.752;37.884;2024-03-07T03:12:54;99755.09;;;28.95;25.75
54816;BME280;40715;55.752;37.884;2024-03-07T03:15:21;99748.84;;;28.95;25.61
54816;BME280;40715;55.752;37.884;2024-03-07T03:17:48;99746.97;;;28.95;25.59
54816;BME280;40715;55.752;37.884;2024-03-07T03:20:16;99750.53;;;28.96;25.48
54816;BME280;40715;55.752;37.884;2024-03-07T03:22:53;99748.53;;;28.98;25.34
54816;BME280;40715;55.752;37.884;2024-03-07T03:25:32;99751.25;;;28.98;25.50
54816;BME280;40715;55.752;37.884;2024-03-07T03:28:02;99742.38;;;28.96;25.59
54816;BME280;40715;55.752;37.884;2024-03-07T03:30:30;99746.97;;;28.95;25.78
54816;BME280;40715;55.752;37.884;2024-03-07T03:32:59;99749.13;;;28.91;25.49
54816;BME280;40715;55.752;37.884;2024-03-07T03:35:27;99752.41;;;28.95;25.48
54816;BME280;40715;55.752;37.884;2024-03-07T03:37:54;99744.09;;;28.97;25.22
54816;BME280;40715;55.752;37.884;2024-03-07T03:40:21;99749.53;;;28.97;25.46
54816;BME280;40715;55.752;37.884;2024-03-07T03:42:48;99750.53;;;28.96;25.49
54816;BME280;40715;55.752;37.884;2024-03-07T03:45:15;99751.41;;;28.96;25.34
54816;BME280;40715;55.752;37.884;2024-03-07T03:47:43;99750.38;;;28.97;25.32
54816;BME280;40715;55.752;37.884;2024-03-07T03:50:12;99744.09;;;28.97;25.40
54816;BME280;40715;55.752;37.884;2024-03-07T03:52:40;99745.97;;;28.96;25.33
54816;BME280;40715;55.752;37.884;2024-03-07T03:55:08;99747.97;;;28.94;25.15
54816;BME280;40715;55.752;37.884;2024-03-07T03:57:42;99747.13;;;28.93;25.23
54816;BME280;40715;55.752;37.884;2024-03-07T04:00:10;99741.84;;;28.92;25.49
54816;BME280;40715;55.752;37.884;2024-03-07T04:02:41;99744.56;;;28.92;25.19
54816;BME280;40715;55.752;37.884;2024-03-07T04:05:10;99737.44;;;28.91;25.08
54816;BME280;40715;55.752;37.884;2024-03-07T04:07:38;99736.59;;;28.90;25.28
54816;BME280;40715;55.752;37.884;2024-03-07T04:10:05;99735.88;;;28.88;25.01
54816;BME280;40715;55.752;37.884;2024-03-07T04:12:38;99726.56;;;28.91;24.92
54816;BME280;40715;55.752;37.884;2024-03-07T04:15:10;99734.56;;;28.92;24.94
54816;BME280;40715;55.752;37.884;2024-03-07T04:17:38;99726.56;;;28.91;24.87
54816;BME280;40715;55.752;37.884;2024-03-07T04:20:06;99726.72;;;28.89;25.20
54816;BME280;40715;55.752;37.884;2024-03-07T04:22:34;99718.44;;;28.91;24.88
54816;BME280;40715;55.752;37.884;2024-03-07T04:25:02;99722.16;;;28.90;25.00
54816;BME280;40715;55.752;37.884;2024-03-07T04:27:30;99724.88;;;28.90;24.90
54816;BME280;40715;55.752;37.884;2024-03-07T04:29:57;99725.44;;;28.93;24.79
54816;BME280;40715;55.752;37.884;2024-03-07T04:32:24;99724.28;;;28.96;24.77
54816;BME280;40715;55.752;37.884;2024-03-07T04:34:51;99719.00;;;28.95;24.65
54816;BME280;40715;55.752;37.884;2024-03-07T04:37:18;99713.97;;;29.00;24.81
54816;BME280;40715;55.752;37.884;2024-03-07T04:39:45;99718.25;;;29.02;24.62
54816;BME280;40715;55.752;37.884;2024-03-07T04:42:12;99717.78;;;29.07;24.64
54816;BME280;40715;55.752;37.884;2024-03-07T04:44:40;99714.75;;;29.10;24.43
54816;BME280;40715;55.752;37.884;2024-03-07T04:47:08;99719.03;;;29.13;24.60
54816;BME280;40715;55.752;37.884;2024-03-07T04:49:35;99723.16;;;29.17;24.55
54816;BME280;40715;55.752;37.884;2024-03-07T04:52:03;99721.84;;;29.21;24.21
54816;BME280;40715;55.752;37.884;2024-03-07T04:54:30;99717.72;;;29.26;24.29
54816;BME280;40715;55.752;37.884;2024-03-07T04:57:01;99715.25;;;29.33;24.17
54816;BME280;40715;55.752;37.884;2024-03-07T04:59:28;99712.38;;;29.35;24.13
54816;BME280;40715;55.752;37.884;2024-03-07T05:01:56;99711.22;;;29.37;23.81
54816;BME280;40715;55.752;37.884;2024-03-07T05:04:24;99720.56;;;29.43;24.06
54816;BME280;40715;55.752;37.884;2024-03-07T05:06:51;99716.84;;;29.44;23.90
54816;BME280;40715;55.752;37.884;2024-03-07T05:09:18;99711.28;;;29.46;23.95
54816;BME280;40715;55.752;37.884;2024-03-07T05:11:53;99709.66;;;29.53;23.63
54816;BME280;40715;55.752;37.884;2024-03-07T05:14:21;99701.22;;;29.56;23.83
54816;BME280;40715;55.752;37.884;2024-03-07T05:16:52;99709.06;;;29.59;23.61
54816;BME280;40715;55.752;37.884;2024-03-07T05:19:32;99700.59;;;29.62;23.58
54816;BME280;40715;55.752;37.884;2024-03-07T05:22:00;99700.59;;;29.62;23.38
54816;BME280;40715;55.752;37.884;2024-03-07T05:24:28;99705.53;;;29.67;23.54
54816;BME280;40715;55.752;37.884;2024-03-07T05:26:55;99714.94;;;29.72;23.19
54816;BME280;40715;55.752;37.884;2024-03-07T05:29:23;99713.59;;;29.76;23.43
54816;BME280;40715;55.752;37.884;2024-03-07T05:31:50;99717.72;;;29.81;23.12
54816;BME280;40715;55.752;37.884;2024-03-07T05:34:18;99712.13;;;29.82;23.16
54816;BME280;40715;55.752;37.884;2024-03-07T05:36:50;99720.53;;;29.89;23.23
54816;BME280;40715;55.752;37.884;2024-03-07T05:39:18;99721.78;;;29.94;22.79
54816;BME280;40715;55.752;37.884;2024-03-07T05:41:45;99711.28;;;30.00;22.96
54816;BME280;40715;55.752;37.884;2024-03-07T05:44:13;99707.25;;;30.04;22.90
54816;BME280;40715;55.752;37.884;2024-03-07T05:46:41;99699.09;;;30.04;22.80
54816;BME280;40715;55.752;37.884;2024-03-07T05:49:13;99700.31;;;30.09;23.01
54816;BME280;40715;55.752;37.884;2024-03-07T05:51:41;99690.00;;;30.13;22.55
54816;BME280;40715;55.752;37.884;2024-03-07T05:54:12;99690.19;;;30.20;22.43
54816;BME280;40715;55.752;37.884;2024-03-07T05:56:40;99684.59;;;30.21;22.81
54816;BME280;40715;55.752;37.884;2024-03-07T05:59:08;99686.00;;;30.25;22.70
54816;BME280;40715;55.752;37.884;2024-03-07T06:01:39;99683.31;;;30.34;23.01
54816;BME280;40715;55.752;37.884;2024-03-07T06:04:06;99698.56;;;30.44;22.88
54816;BME280;40715;55.752;37.884;2024-03-07T06:06:35;99698.13;;;30.57;22.68
54816;BME280;40715;55.752;37.884;2024-03-07T06:09:04;99695.78;;;30.71;22.42
54816;BME280;40715;55.752;37.884;2024-03-07T06:11:39;99695.66;;;30.80;22.82
54816;BME280;40715;55.752;37.884;2024-03-07T06:14:09;99695.38;;;30.92;22.26
54816;BME280;40715;55.752;37.884;2024-03-07T06:16:37;99693.03;;;30.97;22.79
54816;BME280;40715;55.752;37.884;2024-03-07T06:19:07;99689.81;;;31.02;22.86
54816;BME280;40715;55.752;37.884;2024-03-07T06:21:38;99685.75;;;31.06;22.91
54816;BME280;40715;55.752;37.884;2024-03-07T06:24:08;99680.66;;;31.11;22.44
54816;BME280;40715;55.752;37.884;2024-03-07T06:26:38;99680.31;;;31.14;22.13
54816;BME280;40715;55.752;37.884;2024-03-07T06:29:13;99676.06;;;31.20;22.21
54816;BME280;40715;55.752;37.884;2024-03-07T06:31:41;99677.78;;;31.21;22.30
54816;BME280;40715;55.752;37.884;2024-03-07T06:34:08;99683.06;;;31.22;22.05
54816;BME280;40715;55.752;37.884;2024-03-07T06:36:35;99680.00;;;31.25;21.55
54816;BME280;40715;55.752;37.884;2024-03-07T06:39:03;99676.28;;;31.26;21.91
54816;BME280;40715;55.752;37.884;2024-03-07T06:41:33;99677.81;;;31.29;21.83
54816;BME280;40715;55.752;37.884;2024-03-07T06:44:01;99670.31;;;31.31;21.71
54816;BME280;40715;55.752;37.884;2024-03-07T06:46:29;99676.63;;;31.31;21.22
54816;BME280;40715;55.752;37.884;2024-03-07T06:48:56;99680.91;;;31.34;21.54
54816;BME280;40715;55.752;37.884;2024-03-07T06:51:24;99671.69;;;31.35;21.33
54816;BME280;40715;55.752;37.884;2024-03-07T06:53:51;99671.22;;;31.40;21.59
54816;BME280;40715;55.752;37.884;2024-03-07T06:56:19;99664.72;;;31.41;21.00
54816;BME280;40715;55.752;37.884;2024-03-07T06:58:46;99658.09;;;31.43;21.37
54816;BME280;40715;55.752;37.884;2024-03-07T07:01:13;99662.53;;;31.44;21.59
54816;BME280;40715;55.752;37.884;2024-03-07T07:03:42;99661.19;;;31.48;21.26
54816;BME280;40715;55.752;37.884;2024-03-07T07:06:14;99662.19;;;31.56;21.63
54816;BME280;40715;55.752;37.884;2024-03-07T07:08:41;99660.88;;;31.60;21.38
54816;BME280;40715;55.752;37.884;2024-03-07T07:11:09;99662.38;;;31.62;21.08
54816;BME280;40715;55.752;37.884;2024-03-07T07:13:38;99661.91;;;31.67;21.55
54816;BME280;40715;55.752;37.884;2024-03-07T07:16:05;99661.56;;;31.70;21.38
54816;BME280;40715;55.752;37.884;2024-03-07T07:18:33;99663.59;;;31.76;21.16
54816;BME280;40715;55.752;37.884;2024-03-07T07:21:02;99663.75;;;31.83;21.31
54816;BME280;40715;55.752;37.884;2024-03-07T07:23:31;99663.22;;;31.88;20.85
54816;BME280;40715;55.752;37.884;2024-03-07T07:25:58;99660.84;;;31.93;21.15
54816;BME280;40715;55.752;37.884;2024-03-07T07:28:25;99652.16;;;31.97;21.05
54816;BME280;40715;55.752;37.884;2024-03-07T07:30:52;99652.69;;;32.01;20.92
54816;BME280;40715;55.752;37.884;2024-03-07T07:33:19;99653.00;;;32.06;20.71
54816;BME280;40715;55.752;37.884;2024-03-07T07:35:46;99645.34;;;32.10;20.59
54816;BME280;40715;55.752;37.884;2024-03-07T07:38:14;99640.41;;;32.13;20.60
54816;BME280;40715;55.752;37.884;2024-03-07T07:40:42;99648.22;;;32.16;20.83
54816;BME280;40715;55.752;37.884;2024-03-07T07:43:10;99635.97;;;32.21;20.76
54816;BME280;40715;55.752;37.884;2024-03-07T07:45:44;99643.78;;;32.24;20.90
54816;BME280;40715;55.752;37.884;2024-03-07T07:48:12;99638.66;;;32.29;20.49
54816;BME280;40715;55.752;37.884;2024-03-07T07:50:39;99638.13;;;32.33;20.65
54816;BME280;40715;55.752;37.884;2024-03-07T07:53:06;99630.94;;;32.41;20.39
54816;BME280;40715;55.752;37.884;2024-03-07T07:55:35;99626.84;;;32.45;20.43
54816;BME280;40715;55.752;37.884;2024-03-07T07:58:03;99629.56;;;32.45;20.42
54816;BME280;40715;55.752;37.884;2024-03-07T08:00:31;99624.13;;;32.45;20.30
54816;BME280;40715;55.752;37.884;2024-03-07T08:03:02;99619.38;;;32.47;20.49
54816;BME280;40715;55.752;37.884;2024-03-07T08:05:31;99613.91;;;32.47;20.52
54816;BME280;40715;55.752;37.884;2024-03-07T08:08:01;99615.59;;;32.48;20.45
54816;BME280;40715;55.752;37.884;2024-03-07T08:10:34;99619.00;;;32.50;20.05
54816;BME280;40715;55.752;37.884;2024-03-07T08:13:03;99615.41;;;32.49;20.39
54816;BME280;40715;55.752;37.884;2024-03-07T08:15:30;99611.13;;;32.55;20.31
54816;BME280;40715;55.752;37.884;2024-03-07T08:17:59;99610.66;;;32.51;20.15
54816;BME280;40715;55.752;37.884;2024-03-07T08:20:27;99612.19;;;32.46;20.06
54816;BME280;40715;55.752;37.884;2024-03-07T08:22:55;99609.47;;;32.46;20.25
54816;BME280;40715;55.752;37.884;2024-03-07T08:25:24;99604.69;;;32.48;20.08
54816;BME280;40715;55.752;37.884;2024-03-07T08:27:53;99606.22;;;32.50;20.37
54816;BME280;40715;55.752;37.884;2024-03-07T08:30:21;99604.81;;;32.55;20.18
54816;BME280;40715;55.752;37.884;2024-03-07T08:32:54;99601.09;;;32.56;19.95
54816;BME280;40715;55.752;37.884;2024-03-07T08:35:22;99590.66;;;32.59;20.13
54816;BME280;40715;55.752;37.884;2024-03-07T08:37:52;99592.03;;;32.55;20.23
54816;BME280;40715;55.752;37.884;2024-03-07T08:40:30;99597.63;;;32.62;19.97
54816;BME280;40715;55.752;37.884;2024-03-07T08:43:00;99590.97;;;32.64;20.19
54816;BME280;40715;55.752;37.884;2024-03-07T08:45:28;99595.09;;;32.68;20.00
54816;BME280;40715;55.752;37.884;2024-03-07T08:47:56;99588.25;;;32.73;19.66
54816;BME280;40715;55.752;37.884;2024-03-07T08:50:25;99586.31;;;32.81;19.72
54816;BME280;40715;55.752;37.884;2024-03-07T08:52:53;99585.22;;;32.91;19.84
54816;BME280;40715;55.752;37.884;2024-03-07T08:55:23;99583.66;;;32.96;19.31
54816;BME280;40715;55.752;37.884;2024-03-07T08:57:54;99577.66;;;33.01;19.35
54816;BME280;40715;55.752;37.884;2024-03-07T09:00:21;99574.75;;;33.02;19.52
54816;BME280;40715;55.752;37.884;2024-03-07T09:02:55;99562.63;;;33.05;19.36
54816;BME280;40715;55.752;37.884;2024-03-07T09:05:26;99560.56;;;33.07;19.41
54816;BME280;40715;55.752;37.884;2024-03-07T09:07:54;99564.81;;;33.10;19.28
54816;BME280;40715;55.752;37.884;2024-03-07T09:10:22;99573.66;;;33.12;19.33
54816;BME280;40715;55.752;37.884;2024-03-07T09:12:51;99574.06;;;33.00;19.29
54816;BME280;40715;55.752;37.884;2024-03-07T09:15:19;99571.84;;;32.81;19.67
54816;BME280;40715;55.752;37.884;2024-03-07T09:17:48;99583.69;;;32.57;20.04
54816;BME280;40715;55.752;37.884;2024-03-07T09:20:16;99565.88;;;32.38;19.82
54816;BME280;40715;55.752;37.884;2024-03-07T09:22:47;99569.72;;;32.20;20.32
54816;BME280;40715;55.752;37.884;2024-03-07T09:25:15;99556.25;;;32.10;20.52
54816;BME280;40715;55.752;37.884;2024-03-07T09:27:44;99553.53;;;32.02;20.30
54816;BME280;40715;55.752;37.884;2024-03-07T09:30:11;99560.72;;;31.95;20.32
54816;BME280;40715;55.752;37.884;2024-03-07T09:32:40;99559.72;;;31.88;20.63
54816;BME280;40715;55.752;37.884;2024-03-07T09:35:09;99554.44;;;31.86;20.32
54816;BME280;40715;55.752;37.884;2024-03-07T09:37:41;99562.44;;;31.88;20.66
54816;BME280;40715;55.752;37.884;2024-03-07T09:40:10;99546.09;;;31.88;20.51
54816;BME280;40715;55.752;37.884;2024-03-07T09:42:49;99550.19;;;31.83;20.59
54816;BME280;40715;55.752;37.884;2024-03-07T09:45:20;99542.03;;;31.83;20.50
54816;BME280;40715;55.752;37.884;2024-03-07T09:47:50;99545.94;;;31.81;20.41
54816;BME280;40715;55.752;37.884;2024-03-07T09:50:20;99548.00;;;31.79;20.49
54816;BME280;40715;55.752;37.884;2024-03-07T09:52:52;99539.66;;;31.80;20.73
54816;BME280;40715;55.752;37.884;2024-03-07T09:55:20;99548.34;;;31.84;20.89
54816;BME280;40715;55.752;37.884;2024-03-07T09:57:49;99546.81;;;31.81;20.64
54816;BME280;40715;55.752;37.884;2024-03-07T10:00:18;99544.44;;;31.78;20.56
54816;BME280;40715;55.752;37.884;2024-03-07T10:02:56;99547.81;;;31.80;19.83
54816;BME280;40715;55.752;37.884;2024-03-07T10:05:27;99550.38;;;31.74;19.70
54816;BME280;40715;55.752;37.884;2024-03-07T10:07:54;99548.00;;;31.71;19.99
54816;BME280;40715;55.752;37.884;2024-03-07T10:10:23;99557.53;;;31.66;19.35
54816;BME280;40715;55.752;37.884;2024-03-07T10:12:51;99543.94;;;31.66;19.76
54816;BME280;40715;55.752;37.884;2024-03-07T10:15:20;99547.00;;;31.72;20.10
54816;BME280;40715;55.752;37.884;2024-03-07T10:17:48;99540.72;;;31.71;19.81
54816;BME280;40715;55.752;37.884;2024-03-07T10:20:18;99540.53;;;31.73;20.32
54816;BME280;40715;55.752;37.884;2024-03-07T10:22:49;99535.56;;;31.76;19.96
54816;BME280;40715;55.752;37.884;2024-03-07T10:25:22;99532.50;;;31.79;20.54
54816;BME280;40715;55.752;37.884;2024-03-07T10:27:55;99531.66;;;31.79;20.84
54816;BME280;40715;55.752;37.884;2024-03-07T10:30:22;99528.94;;;31.79;20.53
54816;BME280;40715;55.752;37.884;2024-03-07T10:32:59;99530.09;;;31.84;20.76
54816;BME280;40715;55.752;37.884;2024-03-07T10:35:28;99537.25;;;31.86;20.96
54816;BME280;40715;55.752;37.884;2024-03-07T10:37:56;99529.09;;;31.86;21.20
54816;BME280;40715;55.752;37.884;2024-03-07T10:40:27;99529.75;;;31.88;20.92
54816;BME280;40715;55.752;37.884;2024-03-07T10:42:58;99522.78;;;31.85;21.44
54816;BME280;40715;55.752;37.884;2024-03-07T10:45:30;99519.22;;;31.84;21.34
54816;BME280;40715;55.752;37.884;2024-03-07T10:48:03;99522.66;;;31.78;21.38
54816;BME280;40715;55.752;37.884;2024-03-07T10:51:06;99517.31;;;31.85;21.14
54816;BME280;40715;55.752;37.884;2024-03-07T10:54:33;99513.44;;;31.79;21.05
54816;BME280;40715;55.752;37.884;2024-03-07T10:59:32;99505.09;;;32.29;20.63
54816;BME280;40715;55.752;37.884;2024-03-07T11:02:17;99499.31;;;31.76;21.55
54816;BME280;40715;55.752;37.884;2024-03-07T11:04:49;99505.84;;;31.58;21.29
54816;BME280;40715;55.752;37.884;2024-03-07T11:07:22;99495.59;;;31.52;21.50
54816;BME280;40715;55.752;37.884;2024-03-07T11:09:52;99490.66;;;31.47;21.47
54816;BME280;40715;55.752;37.884;2024-03-07T11:12:23;99495.78;;;31.50;21.50
54816;BME280;40715;55.752;37.884;2024-03-07T11:14:52;99489.66;;;31.48;21.70
54816;BME280;40715;55.752;37.884;2024-03-07T11:17:20;99487.13;;;31.47;21.56
54816;BME280;40715;55.752;37.884;2024-03-07T11:19:49;99472.16;;;31.43;21.60
54816;BME280;40715;55.752;37.884;2024-03-07T11:22:32;99483.88;;;31.52;21.78
54816;BME280;40715;55.752;37.884;2024-03-07T11:25:02;99475.00;;;31.49;21.87
54816;BME280;40715;55.752;37.884;2024-03-07T11:27:37;99469.41;;;32.07;21.32
54816;BME280;40715;55.752;37.884;2024-03-07T11:30:10;99468.00;;;31.55;21.50
54816;BME280;40715;55.752;37.884;2024-03-07T11:32:38;99475.34;;;31.46;21.67
54816;BME280;40715;55.752;37.884;2024-03-07T11:35:11;99466.34;;;31.46;21.40
54816;BME280;40715;55.752;37.884;2024-03-07T11:37:45;99469.56;;;31.49;20.98
54816;BME280;40715;55.752;37.884;2024-03-07T11:43:03;99473.50;;;31.47;20.89
54816;BME280;40715;55.752;37.884;2024-03-07T11:45:34;99460.38;;;31.42;20.96
54816;BME280;40715;55.752;37.884;2024-03-07T11:48:06;99459.22;;;31.37;21.20
54816;BME280;40715;55.752;37.884;2024-03-07T11:50:40;99461.44;;;31.33;21.38
54816;BME280;40715;55.752;37.884;2024-03-07T11:53:08;99462.28;;;31.33;21.11
54816;BME280;40715;55.752;37.884;2024-03-07T11:55:39;99463.16;;;31.34;21.37
54816;BME280;40715;55.752;37.884;2024-03-07T11:58:20;99461.09;;;31.36;21.30
54816;BME280;40715;55.752;37.884;2024-03-07T12:00:51;99449.19;;;31.37;20.90
54816;BME280;40715;55.752;37.884;2024-03-07T12:03:20;99459.22;;;31.37;21.35
54816;BME280;40715;55.752;37.884;2024-03-07T12:05:52;99453.59;;;31.38;20.83
54816;BME280;40715;55.752;37.884;2024-03-07T12:08:20;99448.00;;;31.40;20.84
54816;BME280;40715;55.752;37.884;2024-03-07T12:10:51;99452.03;;;31.44;21.34
54816;BME280;40715;55.752;37.884;2024-03-07T12:13:23;99439.13;;;31.46;20.95
54816;BME280;40715;55.752;37.884;2024-03-07T12:15:51;99435.03;;;31.50;21.07
54816;BME280;40715;55.752;37.884;2024-03-07T12:18:19;99442.34;;;31.49;20.94
54816;BME280;40715;55.752;37.884;2024-03-07T12:20:47;99436.38;;;31.54;21.31
54816;BME280;40715;55.752;37.884;2024-03-07T12:23:24;99432.63;;;31.55;21.03
54816;BME280;40715;55.752;37.884;2024-03-07T12:26:03;99428.19;;;31.62;20.84
54816;BME280;40715;55.752;37.884;2024-03-07T12:28:31;99422.94;;;31.61;20.86
54816;BME280;40715;55.752;37.884;2024-03-07T12:31:03;99426.53;;;31.61;20.97
54816;BME280;40715;55.752;37.884;2024-03-07T12:33:31;99418.19;;;31.63;21.28
54816;BME280;40715;55.752;37.884;2024-03-07T12:36:02;99420.72;;;31.64;20.88
54816;BME280;40715;55.752;37.884;2024-03-07T12:38:33;99419.69;;;31.65;20.72
54816;BME280;40715;55.752;37.884;2024-03-07T12:41:10;99413.38;;;31.65;21.16
54816;BME280;40715;55.752;37.884;2024-03-07T12:43:44;99406.09;;;31.65;21.01
54816;BME280;40715;55.752;37.884;2024-03-07T12:46:15;99409.47;;;31.67;21.00
54816;BME280;40715;55.752;37.884;2024-03-07T12:48:44;99404.03;;;31.67;21.19
54816;BME280;40715;55.752;37.884;2024-03-07T12:51:12;99412.00;;;31.69;21.19
54816;BME280;40715;55.752;37.884;2024-03-07T12:53:44;99407.75;;;31.66;21.15
54816;BME280;40715;55.752;37.884;2024-03-07T12:56:12;99404.88;;;31.68;20.76
54816;BME280;40715;55.752;37.884;2024-03-07T12:58:45;99399.22;;;31.70;21.15
54816;BME280;40715;55.752;37.884;2024-03-07T13:01:13;99397.38;;;31.70;20.75
54816;BME280;40715;55.752;37.884;2024-03-07T13:03:41;99392.94;;;31.69;21.13
54816;BME280;40715;55.752;37.884;2024-03-07T13:06:11;99394.31;;;31.73;20.73